METAR Data

Data at: 0213 UTC 16 Jan 2019

METAR for:KSDL (Scottsdale Muni, AZ, US)
Text:KSDL 160153Z 07005KT 10SM BKN044 OVC050 13/11 A3009 RMK AO2 RAE43 SLP180 P0002 T01330106
Temperature: 13.3°C ( 56°F)
Dewpoint: 10.6°C ( 51°F) [RH = 84%]
Pressure (altimeter):30.09 inches Hg (1019.0 mb) [Sea level pressure: 1018.0 mb]
Winds:from the ENE (70 degrees) at 6 MPH (5 knots; 2.6 m/s)
Visibility:10 or more sm (16+ km)
Ceiling:4400 feet AGL
Clouds: broken clouds at 4400 feet AGL, overcast cloud deck at 5000 feet AGL